Time;durP1;ratioP1;P1;durP2;ratioP2;P2;SDS_P1;SDS_P2;PMS_P1;PMS_P2;Temp;Humidity;BMP_temperature;BMP_pressure;BME280_temperature;BME280_humidity;BME280_pressure;Samples;Min_cycle;Max_cycle;Signal;HPM_P1;HPM_P2
2023/06/07 00:01:45;;;;;;;14.07;5.50;;;;;;;;;;6305979;22;20049;-91
2023/06/07 00:04:30;;;;;;;12.18;4.90;;;;;;;;;;6306462;22;20073;-92
2023/06/07 00:07:18;;;;;;;17.67;5.32;;;;;;;;;;6305910;22;20011;-92
2023/06/07 00:10:03;;;;;;;16.23;5.38;;;;;;;;;;6306090;22;20068;-91
2023/06/07 00:12:50;;;;;;;12.20;4.70;;;;;;;;;;6306734;22;20046;-91
2023/06/07 00:15:35;;;;;;;14.18;5.00;;;;;;;;;;6305129;22;20061;-90
2023/06/07 00:18:19;;;;;;;14.18;5.28;;;;;;;;;;6305926;22;20428;-91
2023/06/07 00:21:07;;;;;;;17.63;4.80;;;;;;;;;;6306703;22;20010;-90
2023/06/07 00:23:54;;;;;;;18.05;5.10;;;;;;;;;;6305277;22;20018;-91
2023/06/07 00:26:41;;;;;;;16.65;6.03;;;;;;;;;;6305015;22;20064;-92
2023/06/07 00:29:29;;;;;;;21.88;5.53;;;;;;;;;;6305736;22;20090;-92
2023/06/07 00:32:18;;;;;;;20.15;6.82;;;;;;;;;;6306702;22;20013;-90
2023/06/07 00:35:07;;;;;;;15.35;4.97;;;;;;;;;;6306827;22;20069;-90
2023/06/07 00:37:53;;;;;;;14.70;4.82;;;;;;;;;;6283966;22;20016;-91
2023/06/07 00:40:38;;;;;;;11.38;4.70;;;;;;;;;;6306245;22;20341;-90
2023/06/07 00:43:25;;;;;;;12.25;5.20;;;;;;;;;;6305990;22;20069;-90
2023/06/07 00:46:14;;;;;;;17.40;5.53;;;;;;;;;;6306983;22;20018;-90
2023/06/07 00:48:59;;;;;;;12.40;5.30;;;;;;;;;;6305522;22;20014;-90
2023/06/07 00:51:45;;;;;;;15.05;6.65;;;;;;;;;;6305078;22;20337;-91
2023/06/07 00:54:32;;;;;;;13.23;5.38;;;;;;;;;;6305210;22;20350;-91
2023/06/07 00:57:17;;;;;;;14.18;4.95;;;;;;;;;;6305327;22;20098;-90
2023/06/07 01:00:04;;;;;;;21.90;6.05;;;;;;;;;;6305836;22;20037;-90
2023/06/07 01:02:55;;;;;;;17.98;5.88;;;;;;;;;;6305686;22;20014;-90
2023/06/07 01:05:40;;;;;;;24.42;5.68;;;;;;;;;;6306884;22;20069;-91
2023/06/07 01:08:27;;;;;;;19.73;6.55;;;;;;;;;;6306787;22;20009;-91
2023/06/07 01:11:12;;;;;;;23.45;6.22;;;;;;;;;;6305989;22;20015;-91
2023/06/07 01:13:57;;;;;;;19.90;5.53;;;;;;;;;;6305435;22;20127;-90
2023/06/07 01:16:48;;;;;;;17.63;5.60;;;;;;;;;;6307078;22;20018;-89
2023/06/07 01:19:35;;;;;;;20.10;5.60;;;;;;;;;;6307378;22;20010;-92
2023/06/07 01:22:27;;;;;;;13.90;5.50;;;;;;;;;;6308638;22;20015;-91
2023/06/07 01:25:12;;;;;;;21.10;6.72;;;;;;;;;;6308691;22;20041;-91
2023/06/07 01:27:57;;;;;;;12.68;6.15;;;;;;;;;;6308042;22;20053;-90
2023/06/07 01:30:44;;;;;;;19.77;5.05;;;;;;;;;;6306583;22;20060;-91
2023/06/07 01:33:33;;;;;;;18.50;5.97;;;;;;;;;;6307308;22;20053;-89
2023/06/07 01:36:26;;;;;;;22.50;5.60;;;;;;;;;;6308556;22;20038;-90
2023/06/07 01:39:11;;;;;;;22.23;5.38;;;;;;;;;;6286756;22;20449;-89
2023/06/07 01:41:57;;;;;;;15.30;5.03;;;;;;;;;;6306389;22;20068;-89
2023/06/07 01:44:42;;;;;;;14.48;4.57;;;;;;;;;;6306448;22;20111;-91
2023/06/07 01:47:27;;;;;;;17.08;5.03;;;;;;;;;;6306728;22;20046;-91
2023/06/07 01:50:11;;;;;;;16.83;5.00;;;;;;;;;;6306837;22;20338;-89
2023/06/07 01:52:58;;;;;;;11.68;5.97;;;;;;;;;;6306382;22;20038;-90
2023/06/07 01:55:43;;;;;;;11.52;4.45;;;;;;;;;;6284451;22;20069;-90
2023/06/07 01:58:35;;;;;;;15.95;5.55;;;;;;;;;;6307024;22;20010;-90
2023/06/07 02:01:27;;;;;;;17.65;5.38;;;;;;;;;;6306756;22;20064;-91
2023/06/07 02:04:12;;;;;;;18.25;5.60;;;;;;;;;;6306520;22;20029;-90
2023/06/07 02:07:01;;;;;;;16.63;4.95;;;;;;;;;;6306188;22;20030;-89
2023/06/07 02:09:49;;;;;;;13.02;5.35;;;;;;;;;;6307482;22;20014;-90
2023/06/07 02:12:35;;;;;;;17.88;5.43;;;;;;;;;;6307104;22;20094;-90
2023/06/07 02:15:22;;;;;;;17.08;4.88;;;;;;;;;;6306477;22;20022;-90
2023/06/07 02:18:11;;;;;;;19.05;6.60;;;;;;;;;;6307302;22;20026;-89
2023/06/07 02:20:56;;;;;;;16.40;5.28;;;;;;;;;;6306585;22;20014;-90
2023/06/07 02:23:40;;;;;;;15.63;4.75;;;;;;;;;;6306509;22;20317;-91
2023/06/07 02:26:25;;;;;;;14.63;5.28;;;;;;;;;;6306924;22;20342;-90
2023/06/07 02:29:10;;;;;;;15.27;4.80;;;;;;;;;;6307103;22;20046;-90
2023/06/07 02:32:04;;;;;;;14.10;5.15;;;;;;;;;;6306161;22;20014;-90
2023/06/07 02:34:49;;;;;;;13.70;5.47;;;;;;;;;;6286330;22;20069;-89
2023/06/07 02:37:33;;;;;;;15.30;5.65;;;;;;;;;;6308425;22;20086;-91
2023/06/07 02:40:18;;;;;;;15.07;5.15;;;;;;;;;;6306513;22;20325;-89
2023/06/07 02:43:03;;;;;;;19.40;6.00;;;;;;;;;;6306086;22;20588;-88
2023/06/07 02:45:47;;;;;;;15.20;5.65;;;;;;;;;;6283842;22;20022;-89
2023/06/07 02:48:35;;;;;;;16.20;5.65;;;;;;;;;;6306210;22;20141;-89
2023/06/07 02:51:20;;;;;;;24.38;6.55;;;;;;;;;;6307302;22;20146;-89
2023/06/07 02:54:04;;;;;;;16.27;5.40;;;;;;;;;;6306673;22;20072;-90
2023/06/07 02:56:51;;;;;;;17.17;5.78;;;;;;;;;;6305377;22;20714;-90
2023/06/07 02:59:38;;;;;;;19.42;5.70;;;;;;;;;;6307296;22;20019;-89
2023/06/07 03:02:23;;;;;;;19.35;5.72;;;;;;;;;;6307456;22;20065;-90
2023/06/07 03:05:08;;;;;;;23.98;6.75;;;;;;;;;;6306722;22;20014;-90
2023/06/07 03:07:56;;;;;;;17.52;5.72;;;;;;;;;;6306803;22;20046;-90
2023/06/07 03:10:41;;;;;;;16.65;5.43;;;;;;;;;;6285010;22;20046;-90
2023/06/07 03:13:25;;;;;;;17.33;6.03;;;;;;;;;;6306041;22;20014;-89
2023/06/07 03:16:10;;;;;;;13.98;5.97;;;;;;;;;;6306918;22;20102;-91
2023/06/07 03:18:57;;;;;;;46.03;7.13;;;;;;;;;;6305709;22;20026;-89
2023/06/07 03:21:44;;;;;;;17.63;6.85;;;;;;;;;;6305980;22;20483;-90
2023/06/07 03:24:29;;;;;;;25.05;6.60;;;;;;;;;;6306148;22;20401;-89
2023/06/07 03:27:13;;;;;;;20.40;5.70;;;;;;;;;;6284343;22;20022;-89
2023/06/07 03:30:01;;;;;;;19.30;5.55;;;;;;;;;;6305534;22;20141;-90
2023/06/07 03:32:46;;;;;;;15.60;5.38;;;;;;;;;;6307125;22;20014;-90
2023/06/07 03:35:31;;;;;;;14.48;5.57;;;;;;;;;;6307312;22;20072;-89
2023/06/07 03:38:15;;;;;;;15.20;4.82;;;;;;;;;;6307303;22;20053;-90
2023/06/07 03:41:00;;;;;;;20.45;5.55;;;;;;;;;;6283613;22;20018;-89
2023/06/07 03:43:44;;;;;;;16.45;4.80;;;;;;;;;;6306868;22;20386;-89
2023/06/07 03:46:31;;;;;;;15.45;5.57;;;;;;;;;;6305806;22;20030;-90
2023/06/07 03:49:16;;;;;;;20.27;5.22;;;;;;;;;;6287960;22;20018;-89
2023/06/07 03:52:01;;;;;;;14.70;4.90;;;;;;;;;;6311246;22;20080;-90
2023/06/07 03:54:48;;;;;;;18.73;6.05;;;;;;;;;;6289119;22;20014;-89
2023/06/07 03:57:33;;;;;;;17.55;4.65;;;;;;;;;;6311638;22;20046;-89
2023/06/07 04:00:17;;;;;;;23.23;5.15;;;;;;;;;;6311720;22;20014;-90
2023/06/07 04:03:02;;;;;;;14.75;4.38;;;;;;;;;;6311765;22;20046;-90
2023/06/07 04:05:46;;;;;;;17.63;4.82;;;;;;;;;;6305596;22;20018;-90
2023/06/07 04:08:32;;;;;;;16.08;4.60;;;;;;;;;;6284000;22;20015;-90
2023/06/07 04:11:16;;;;;;;16.80;4.80;;;;;;;;;;6306375;22;20010;-91
2023/06/07 04:14:01;;;;;;;15.25;5.00;;;;;;;;;;6305333;22;20015;-89
2023/06/07 04:16:46;;;;;;;16.65;6.63;;;;;;;;;;6305693;22;20461;-89
2023/06/07 04:19:33;;;;;;;17.25;5.72;;;;;;;;;;6306247;22;20037;-91
2023/06/07 04:22:18;;;;;;;17.85;5.90;;;;;;;;;;6283509;22;20056;-90
2023/06/07 04:25:03;;;;;;;12.27;5.10;;;;;;;;;;6305456;22;20068;-89
2023/06/07 04:27:48;;;;;;;19.40;6.10;;;;;;;;;;6305531;22;20010;-89
2023/06/07 04:30:36;;;;;;;15.15;5.75;;;;;;;;;;6305388;22;20015;-89
2023/06/07 04:33:23;;;;;;;20.75;5.55;;;;;;;;;;6305670;22;20372;-90
2023/06/07 04:36:08;;;;;;;19.52;6.75;;;;;;;;;;6304847;22;20022;-90
2023/06/07 04:38:53;;;;;;;16.80;5.10;;;;;;;;;;6283600;22;20017;-89
2023/06/07 04:41:38;;;;;;;14.02;5.20;;;;;;;;;;6305446;22;20090;-90
2023/06/07 04:44:28;;;;;;;16.05;5.88;;;;;;;;;;6305069;22;20026;-88
2023/06/07 04:47:13;;;;;;;14.10;5.70;;;;;;;;;;6283364;22;20061;-90
2023/06/07 04:50:01;;;;;;;17.98;5.35;;;;;;;;;;6305613;22;20015;-94
2023/06/07 04:52:49;;;;;;;21.00;7.72;;;;;;;;;;6284447;22;20026;-89
2023/06/07 04:55:34;;;;;;;14.05;5.20;;;;;;;;;;6307545;22;20100;-91
2023/06/07 04:58:20;;;;;;;12.65;4.65;;;;;;;;;;6306339;22;20021;-89
2023/06/07 05:01:05;;;;;;;14.20;4.50;;;;;;;;;;6306920;22;20017;-89
2023/06/07 05:03:50;;;;;;;14.98;4.80;;;;;;;;;;6308724;22;20022;-91
2023/06/07 05:06:45;;;;;;;13.73;4.22;;;;;;;;;;6307573;22;20014;-90
2023/06/07 05:09:30;;;;;;;12.23;4.35;;;;;;;;;;6307425;22;20015;-91
2023/06/07 05:12:15;;;;;;;14.02;4.65;;;;;;;;;;6306299;22;20052;-92
2023/06/07 05:14:59;;;;;;;13.02;3.80;;;;;;;;;;6306533;22;20018;-91
2023/06/07 05:17:45;;;;;;;15.70;3.17;;;;;;;;;;6306663;22;20014;-91
2023/06/07 05:20:32;;;;;;;13.95;3.67;;;;;;;;;;6307347;22;20060;-91
2023/06/07 05:23:20;;;;;;;20.50;4.25;;;;;;;;;;6307345;22;20018;-91
2023/06/07 05:26:08;;;;;;;13.15;3.75;;;;;;;;;;6285477;22;20025;-91
2023/06/07 05:28:52;;;;;;;14.77;4.78;;;;;;;;;;6307444;22;20345;-90
2023/06/07 05:31:37;;;;;;;9.63;3.08;;;;;;;;;;6307106;22;20342;-88
2023/06/07 05:34:21;;;;;;;19.33;4.32;;;;;;;;;;6306570;22;20065;-89
2023/06/07 05:37:06;;;;;;;12.00;4.55;;;;;;;;;;6305890;22;20057;-92
2023/06/07 05:39:52;;;;;;;12.93;3.78;;;;;;;;;;6306300;22;20338;-90
2023/06/07 05:42:39;;;;;;;14.68;3.75;;;;;;;;;;6308654;22;20033;-91
2023/06/07 05:45:24;;;;;;;15.65;3.92;;;;;;;;;;6306297;22;20064;-90
2023/06/07 05:48:11;;;;;;;11.98;3.60;;;;;;;;;;6306624;22;20018;-92
2023/06/07 05:50:59;;;;;;;8.68;3.15;;;;;;;;;;6306654;22;20453;-92
2023/06/07 05:53:47;;;;;;;13.05;4.28;;;;;;;;;;6307076;22;20014;-90
2023/06/07 05:56:32;;;;;;;15.27;3.80;;;;;;;;;;6306903;22;20017;-91
2023/06/07 05:59:16;;;;;;;10.88;4.45;;;;;;;;;;6306837;22;20333;-92
2023/06/07 06:02:08;;;;;;;12.23;4.45;;;;;;;;;;6306427;22;20337;-92
2023/06/07 06:04:56;;;;;;;14.82;4.53;;;;;;;;;;6307093;22;20014;-93
2023/06/07 06:07:41;;;;;;;12.88;4.35;;;;;;;;;;6307337;22;20010;-91
2023/06/07 06:10:25;;;;;;;10.55;3.50;;;;;;;;;;6307398;22;20025;-91
2023/06/07 06:13:10;;;;;;;8.57;3.58;;;;;;;;;;6284671;22;20018;-90
2023/06/07 06:15:57;;;;;;;11.55;3.35;;;;;;;;;;6307561;22;20018;-92
2023/06/07 06:18:44;;;;;;;13.40;4.07;;;;;;;;;;6308117;22;20057;-92
2023/06/07 06:21:32;;;;;;;11.30;3.85;;;;;;;;;;6285761;22;20010;-91
2023/06/07 06:24:17;;;;;;;9.82;3.17;;;;;;;;;;6306969;22;20060;-93
2023/06/07 06:27:01;;;;;;;12.75;3.72;;;;;;;;;;6306500;22;20340;-90
2023/06/07 06:29:46;;;;;;;14.85;3.67;;;;;;;;;;6306530;22;20094;-92
2023/06/07 06:32:31;;;;;;;14.73;3.60;;;;;;;;;;6284503;22;20804;-92
2023/06/07 06:35:18;;;;;;;11.00;3.60;;;;;;;;;;6305438;22;20021;-91
2023/06/07 06:38:03;;;;;;;11.55;3.13;;;;;;;;;;6284289;22;20018;-92
2023/06/07 06:40:47;;;;;;;10.65;3.38;;;;;;;;;;6306853;22;20010;-91
2023/06/07 06:43:33;;;;;;;9.77;3.58;;;;;;;;;;6312226;22;20033;-91
2023/06/07 06:46:18;;;;;;;8.98;3.38;;;;;;;;;;6311573;22;20395;-91
2023/06/07 06:49:03;;;;;;;13.85;3.85;;;;;;;;;;6308070;22;20010;-92
2023/06/07 06:51:47;;;;;;;10.75;4.22;;;;;;;;;;6306451;22;20023;-91
2023/06/07 06:54:32;;;;;;;11.93;3.60;;;;;;;;;;6305910;22;20605;-92
2023/06/07 06:57:16;;;;;;;10.73;3.03;;;;;;;;;;6306945;22;20025;-92
2023/06/07 07:00:10;;;;;;;10.90;3.35;;;;;;;;;;6305733;22;20094;-94
2023/06/07 07:02:55;;;;;;;10.25;3.95;;;;;;;;;;6306191;22;20046;-92
2023/06/07 07:05:40;;;;;;;11.73;4.18;;;;;;;;;;6284528;22;20022;-91
2023/06/07 07:08:28;;;;;;;15.32;3.45;;;;;;;;;;6307277;22;20425;-92
2023/06/07 07:11:12;;;;;;;9.57;2.92;;;;;;;;;;6307718;22;20056;-90
2023/06/07 07:13:59;;;;;;;11.00;3.72;;;;;;;;;;6306058;22;20092;-93
2023/06/07 07:16:44;;;;;;;10.45;3.50;;;;;;;;;;6307211;22;20106;-92
2023/06/07 07:19:31;;;;;;;16.92;4.07;;;;;;;;;;6307330;22;20017;-91
2023/06/07 07:22:15;;;;;;;17.88;4.35;;;;;;;;;;6284267;22;20030;-92
2023/06/07 07:25:00;;;;;;;16.55;4.68;;;;;;;;;;6307196;22;20018;-90
2023/06/07 07:27:44;;;;;;;19.35;4.25;;;;;;;;;;6283877;22;20038;-90
2023/06/07 07:30:29;;;;;;;9.60;3.42;;;;;;;;;;6306783;22;20435;-90
2023/06/07 07:33:13;;;;;;;12.57;3.13;;;;;;;;;;6305849;22;20100;-90
2023/06/07 07:36:00;;;;;;;12.98;3.60;;;;;;;;;;6307382;22;20018;-91
2023/06/07 07:38:45;;;;;;;12.55;4.05;;;;;;;;;;6284744;22;20407;-90
2023/06/07 07:41:30;;;;;;;11.05;3.03;;;;;;;;;;6305572;22;20024;-92
2023/06/07 07:44:14;;;;;;;12.55;2.80;;;;;;;;;;6306023;22;20010;-90
2023/06/07 07:46:59;;;;;;;17.40;5.70;;;;;;;;;;6284332;22;20083;-91
2023/06/07 07:49:43;;;;;;;12.60;3.78;;;;;;;;;;6305685;22;20014;-91
2023/06/07 07:52:28;;;;;;;11.60;3.67;;;;;;;;;;6283212;22;20333;-90
2023/06/07 07:55:12;;;;;;;11.35;3.70;;;;;;;;;;6305200;22;20072;-92
2023/06/07 07:57:57;;;;;;;8.65;3.03;;;;;;;;;;6283839;22;20068;-91
2023/06/07 08:00:41;;;;;;;7.93;3.22;;;;;;;;;;6283639;22;20045;-90
2023/06/07 08:03:26;;;;;;;11.60;3.55;;;;;;;;;;6306598;22;20053;-93
2023/06/07 08:06:10;;;;;;;13.18;3.75;;;;;;;;;;6306718;22;20084;-91
2023/06/07 08:08:56;;;;;;;9.55;3.25;;;;;;;;;;6305606;22;20455;-90
2023/06/07 08:11:40;;;;;;;37.13;5.63;;;;;;;;;;6283652;22;20107;-92
2023/06/07 08:14:25;;;;;;;10.50;3.40;;;;;;;;;;6283145;22;20057;-91
2023/06/07 08:17:10;;;;;;;11.32;3.72;;;;;;;;;;6283589;22;20108;-90
2023/06/07 08:19:54;;;;;;;12.75;3.63;;;;;;;;;;6284014;22;20018;-92
2023/06/07 08:22:39;;;;;;;14.45;3.30;;;;;;;;;;6306354;22;20461;-92
2023/06/07 08:25:24;;;;;;;16.08;3.75;;;;;;;;;;6306414;22;20014;-94
2023/06/07 08:28:08;;;;;;;11.88;3.33;;;;;;;;;;6307504;22;20460;-92
2023/06/07 08:30:54;;;;;;;21.63;4.50;;;;;;;;;;6307634;22;20063;-91
2023/06/07 08:33:38;;;;;;;10.85;3.25;;;;;;;;;;6307505;22;20452;-91
2023/06/07 08:36:23;;;;;;;12.60;3.28;;;;;;;;;;6307512;22;20054;-91
2023/06/07 08:39:08;;;;;;;11.27;3.55;;;;;;;;;;6308599;22;20144;-91
2023/06/07 08:41:52;;;;;;;13.30;3.97;;;;;;;;;;6307568;22;20066;-92
2023/06/07 08:44:37;;;;;;;10.63;3.13;;;;;;;;;;6285240;22;20017;-91
2023/06/07 08:47:27;;;;;;;9.77;4.00;;;;;;;;;;6285775;22;20018;-91
2023/06/07 08:50:13;;;;;;;9.70;3.40;;;;;;;;;;6308624;22;20060;-91
2023/06/07 08:53:01;;;;;;;11.93;3.40;;;;;;;;;;6307371;22;20057;-92
2023/06/07 08:55:46;;;;;;;10.75;3.47;;;;;;;;;;6307321;22;20026;-91
2023/06/07 08:58:31;;;;;;;9.85;4.05;;;;;;;;;;6306737;22;20018;-91
2023/06/07 09:01:16;;;;;;;20.33;5.32;;;;;;;;;;6308619;22;20017;-91
2023/06/07 09:04:01;;;;;;;12.00;3.28;;;;;;;;;;6307238;22;20009;-91
2023/06/07 09:06:45;;;;;;;13.57;3.28;;;;;;;;;;6285128;22;20023;-92
2023/06/07 09:09:30;;;;;;;8.93;3.10;;;;;;;;;;6307993;22;20072;-93
2023/06/07 09:12:15;;;;;;;11.68;3.53;;;;;;;;;;6285248;22;20105;-91
2023/06/07 09:15:04;;;;;;;12.48;3.38;;;;;;;;;;6308134;22;20515;-93
2023/06/07 09:17:51;;;;;;;8.93;3.13;;;;;;;;;;6285446;22;20080;-92
2023/06/07 09:20:37;;;;;;;8.48;3.33;;;;;;;;;;6284396;22;20014;-90
2023/06/07 09:23:21;;;;;;;13.57;3.38;;;;;;;;;;6307852;22;20018;-90
2023/06/07 09:26:07;;;;;;;9.02;4.00;;;;;;;;;;6284698;22;20065;-91
2023/06/07 09:28:52;;;;;;;11.15;3.03;;;;;;;;;;6306455;22;20109;-92
2023/06/07 09:31:37;;;;;;;11.57;3.65;;;;;;;;;;6285128;22;20018;-91
2023/06/07 09:34:22;;;;;;;15.05;4.35;;;;;;;;;;6306998;22;20018;-91
2023/06/07 09:37:09;;;;;;;10.43;3.13;;;;;;;;;;6308081;22;20448;-91
2023/06/07 09:40:07;;;;;;;8.10;2.97;;;;;;;;;;6307604;22;20071;-91
2023/06/07 09:42:59;;;;;;;10.15;3.00;;;;;;;;;;6306739;22;20076;-91
2023/06/07 09:45:53;;;;;;;12.20;3.42;;;;;;;;;;6307996;22;20091;-91
2023/06/07 09:48:48;;;;;;;9.48;3.15;;;;;;;;;;6308446;22;20341;-91
2023/06/07 09:51:40;;;;;;;8.35;3.15;;;;;;;;;;6307664;22;20049;-90
2023/06/07 09:54:37;;;;;;;7.07;2.90;;;;;;;;;;6306992;22;20014;-91
2023/06/07 09:57:25;;;;;;;7.38;3.17;;;;;;;;;;6308103;22;20014;-89
2023/06/07 10:00:14;;;;;;;12.13;3.13;;;;;;;;;;6306610;22;20380;-91
2023/06/07 10:03:05;;;;;;;13.07;4.00;;;;;;;;;;6285346;22;20065;-91
2023/06/07 10:05:50;;;;;;;11.90;3.83;;;;;;;;;;6306005;22;20090;-90
2023/06/07 10:08:35;;;;;;;10.90;3.35;;;;;;;;;;6306395;22;20108;-92
2023/06/07 10:11:20;;;;;;;17.63;3.70;;;;;;;;;;6284866;22;20017;-90
2023/06/07 10:14:08;;;;;;;6.53;3.20;;;;;;;;;;6307810;22;20014;-92
2023/06/07 10:16:55;;;;;;;13.35;4.50;;;;;;;;;;6305735;22;20088;-91
2023/06/07 10:19:42;;;;;;;13.20;3.67;;;;;;;;;;6307052;22;20341;-92
2023/06/07 10:22:30;;;;;;;7.50;3.47;;;;;;;;;;6307704;22;20798;-92
2023/06/07 10:25:17;;;;;;;13.07;3.67;;;;;;;;;;6306143;22;20029;-90
2023/06/07 10:28:10;;;;;;;11.23;3.50;;;;;;;;;;6306194;22;20456;-91
2023/06/07 10:30:59;;;;;;;20.70;3.85;;;;;;;;;;6306092;22;20380;-90
2023/06/07 10:33:44;;;;;;;11.70;3.40;;;;;;;;;;6305763;22;20060;-90
2023/06/07 10:36:29;;;;;;;11.55;3.38;;;;;;;;;;6306315;22;20053;-91
2023/06/07 10:39:13;;;;;;;10.88;3.72;;;;;;;;;;6308013;22;20019;-90
2023/06/07 10:41:58;;;;;;;14.10;4.28;;;;;;;;;;6287534;22;20288;-90
2023/06/07 10:44:44;;;;;;;12.68;3.75;;;;;;;;;;6318409;22;20033;-92
2023/06/07 10:47:31;;;;;;;7.45;3.10;;;;;;;;;;6316686;22;20037;-91
2023/06/07 10:50:32;;;;;;;10.50;3.80;;;;;;;;;;6295621;22;20018;-89
2023/06/07 10:53:16;;;;;;;8.57;3.15;;;;;;;;;;6321294;22;20429;-88
2023/06/07 10:56:27;;;;;;;7.97;3.00;;;23.00;84.60;;;;;;6314519;22;20033;-90
2023/06/07 10:59:14;;;;;;;9.45;3.28;;;;;;;;;;6307979;22;20098;-90
2023/06/07 11:02:18;;;;;;;9.55;3.33;;;23.20;83.60;;;;;;6305607;22;20045;-91
2023/06/07 11:05:05;;;;;;;10.00;3.17;;;;;;;;;;6306204;22;20098;-90
2023/06/07 11:08:10;;;;;;;9.10;3.75;;;;;;;;;;6306086;22;20033;-89
2023/06/07 11:10:59;;;;;;;11.02;3.10;;;;;;;;;;6307068;22;20081;-91
2023/06/07 11:13:44;;;;;;;10.30;3.05;;;;;;;;;;6306053;22;20469;-92
2023/06/07 11:16:32;;;;;;;9.68;2.85;;;;;;;;;;6306611;22;20112;-90
2023/06/07 11:19:18;;;;;;;11.52;3.38;;;;;;;;;;6307254;22;20032;-89
2023/06/07 11:22:06;;;;;;;12.57;3.58;;;;;;;;;;6306738;22;20486;-90
2023/06/07 11:24:51;;;;;;;9.13;3.40;;;;;;;;;;6305427;22;20014;-90
2023/06/07 11:27:36;;;;;;;7.22;3.80;;;;;;;;;;6284212;22;20060;-90
2023/06/07 11:30:21;;;;;;;9.55;3.13;;;;;;;;;;6284140;22;20018;-90
2023/06/07 11:33:06;;;;;;;13.93;4.00;;;;;;;;;;6284078;22;20057;-90
2023/06/07 11:35:52;;;;;;;8.73;3.50;;;;;;;;;;6305137;22;20065;-89
2023/06/07 11:38:39;;;;;;;11.38;4.25;;;;;;;;;;6306755;22;20507;-92
2023/06/07 11:41:24;;;;;;;11.98;3.90;;;;;;;;;;6305610;22;20056;-90
2023/06/07 11:44:09;;;;;;;10.38;3.53;;;;;;;;;;6283635;22;20019;-90
2023/06/07 11:46:53;;;;;;;11.45;5.45;;;;;;;;;;6283272;22;20037;-90
2023/06/07 11:49:38;;;;;;;12.93;4.35;;;;;;;;;;6283961;22;20041;-90
2023/06/07 11:52:24;;;;;;;13.43;4.38;;;;;;;;;;6305928;22;20388;-91
2023/06/07 11:55:09;;;;;;;10.93;3.75;;;;;;;;;;6283569;22;20099;-90
2023/06/07 11:57:54;;;;;;;11.82;3.45;;;;;;;;;;6306432;22;20058;-91
2023/06/07 12:00:38;;;;;;;14.40;4.15;;;;;;;;;;6306198;22;20041;-92
2023/06/07 12:03:23;;;;;;;10.13;3.72;;;;;;;;;;6307177;22;20098;-90
2023/06/07 12:06:08;;;;;;;8.55;3.90;;;;;;;;;;6283402;22;20042;-91
2023/06/07 12:08:52;;;;;;;11.23;4.30;;;;;;;;;;6305004;22;20018;-90
2023/06/07 12:11:37;;;;;;;13.23;4.18;;;;;;;;;;6306538;22;20013;-89
2023/06/07 12:14:31;;;;;;;9.02;3.67;;;;;;;;;;6284184;22;20017;-89
2023/06/07 12:17:16;;;;;;;12.45;4.38;;;;;;;;;;6306415;22;20018;-89
2023/06/07 12:20:14;;;;;;;8.60;3.92;;;;;;;;;;6305910;22;20096;-90
2023/06/07 12:23:06;;;;;;;8.23;3.80;;;;;;;;;;6284281;22;20886;-90
2023/06/07 12:25:51;;;;;;;11.52;3.83;;;;;;;;;;6306485;22;20021;-93
2023/06/07 12:28:37;;;;;;;11.25;3.35;;;;;;;;;;6305068;22;20014;-90
2023/06/07 12:31:24;;;;;;;12.65;3.28;;;;;;;;;;6305286;22;20326;-90
2023/06/07 12:34:09;;;;;;;15.20;4.20;;;;;;;;;;6305781;22;20013;-90
2023/06/07 12:36:54;;;;;;;14.63;4.25;;;;;;;;;;6304877;22;20061;-90
2023/06/07 12:39:39;;;;;;;10.60;3.80;;;;;;;;;;6305342;22;20014;-89
2023/06/07 12:42:23;;;;;;;7.95;3.78;;;;;;;;;;6306613;22;20086;-90
2023/06/07 12:45:08;;;;;;;9.93;4.25;;;;;;;;;;6283234;22;20013;-90
2023/06/07 12:47:54;;;;;;;6.88;3.60;;;;;;;;;;6283582;22;20338;-92
2023/06/07 12:50:39;;;;;;;12.48;3.47;;;;;;;;;;6306213;22;20014;-90
2023/06/07 12:53:23;;;;;;;9.10;3.45;;;;;;;;;;6283252;22;20018;-90
2023/06/07 12:56:08;;;;;;;8.38;3.22;;;;;;;;;;6282352;22;20149;-90
2023/06/07 12:58:53;;;;;;;10.65;3.63;;;;;;;;;;6306007;22;20018;-89
2023/06/07 13:01:38;;;;;;;9.55;3.58;;;;;;;;;;6283125;22;20460;-90
2023/06/07 13:04:23;;;;;;;9.63;3.35;;;;;;;;;;6306195;22;20014;-89
2023/06/07 13:07:08;;;;;;;9.48;3.78;;;;;;;;;;6305065;22;20014;-90
2023/06/07 13:09:53;;;;;;;7.88;3.50;;;;;;;;;;6306477;22;20481;-89
2023/06/07 13:12:38;;;;;;;6.57;3.70;;;;;;;;;;6284695;22;20056;-90
2023/06/07 13:15:24;;;;;;;11.10;3.40;;;;;;;;;;6284349;22;20342;-91
2023/06/07 13:18:09;;;;;;;13.60;3.60;;;;;;;;;;6284064;22;20108;-91
2023/06/07 13:20:53;;;;;;;12.13;3.58;;;;;;;;;;6308014;22;20068;-90
2023/06/07 13:23:38;;;;;;;9.80;3.30;;;;;;;;;;6306552;22;20060;-89
2023/06/07 13:26:22;;;;;;;12.02;4.00;;;;;;;;;;6284356;22;20058;-91
2023/06/07 13:29:07;;;;;;;11.85;3.25;;;;;;;;;;6305801;22;20345;-89
2023/06/07 13:31:52;;;;;;;11.18;3.92;;;;;;;;;;6306653;22;20132;-90
2023/06/07 13:34:36;;;;;;;9.70;4.00;;;;;;;;;;6308252;22;20090;-89
2023/06/07 13:37:20;;;;;;;14.32;2.97;;;;;;;;;;6284429;22;20047;-88
2023/06/07 13:40:05;;;;;;;9.88;2.95;;;;;;;;;;6284155;22;20060;-88
2023/06/07 13:42:50;;;;;;;9.52;3.05;;;;;;;;;;6307565;22;20034;-88
2023/06/07 13:45:36;;;;;;;8.73;3.55;;;;;;;;;;6307466;22;20022;-89
2023/06/07 13:48:21;;;;;;;9.15;3.42;;;;;;;;;;6306100;22;20038;-88
2023/06/07 13:51:08;;;;;;;8.02;3.80;;;;;;;;;;6284370;22;20018;-89
2023/06/07 13:53:52;;;;;;;9.40;3.55;;;;;;;;;;6306511;22;20019;-90
2023/06/07 13:56:37;;;;;;;12.10;3.45;;;;;;;;;;6307963;22;20461;-91
2023/06/07 13:59:22;;;;;;;11.40;2.97;;;;;;;;;;6306256;22;20010;-89
2023/06/07 14:02:08;;;;;;;14.60;3.30;;;;;;;;;;6306041;22;20061;-89
2023/06/07 14:04:53;;;;;;;11.98;3.63;;;;;;;;;;6306600;22;20483;-89
2023/06/07 14:07:37;;;;;;;11.27;3.25;;;;;;;;;;6307741;22;20060;-88
2023/06/07 14:10:22;;;;;;;8.32;3.45;;;;;;;;;;6283763;22;20021;-88
2023/06/07 14:13:07;;;;;;;9.80;4.15;;;;;;;;;;6305379;22;20018;-90
2023/06/07 14:15:51;;;;;;;8.82;3.47;;;;;;;;;;6306687;22;20028;-89
2023/06/07 14:18:36;;;;;;;11.63;3.33;;;;;;;;;;6284798;22;20018;-88
2023/06/07 14:21:20;;;;;;;7.57;2.95;;;;;;;;;;6306790;22;20020;-89
2023/06/07 14:24:05;;;;;;;12.07;3.55;;;;;;;;;;6307165;22;20014;-93
2023/06/07 14:26:50;;;;;;;10.15;3.53;;;;;;;;;;6286067;22;20030;-89
2023/06/07 14:29:34;;;;;;;11.40;3.65;;;;;;;;;;6307432;22;20017;-89
2023/06/07 14:32:19;;;;;;;9.15;3.40;;;;;;;;;;6283851;22;20030;-88
2023/06/07 14:35:04;;;;;;;9.70;3.45;;;;;;;;;;6305880;22;20072;-89
2023/06/07 14:37:49;;;;;;;11.90;3.97;;;;;;;;;;6305776;22;20461;-91
2023/06/07 14:40:33;;;;;;;10.52;3.70;;;;;;;;;;6306843;22;20015;-91
2023/06/07 14:43:18;;;;;;;12.32;4.70;;;;;;;;;;6283281;22;20095;-90
2023/06/07 14:46:02;;;;;;;13.05;3.85;;;;;;;;;;6306073;22;20018;-90
2023/06/07 14:48:47;;;;;;;12.70;3.97;;;;;;;;;;6284129;22;20456;-90
2023/06/07 14:51:31;;;;;;;10.98;3.67;;;;;;;;;;6306813;22;20019;-91
2023/06/07 14:54:16;;;;;;;9.48;3.80;;;;;;;;;;6306738;22;20350;-91
2023/06/07 14:57:01;;;;;;;8.23;3.55;;;;;;;;;;6306759;22;20141;-90
2023/06/07 14:59:48;;;;;;;13.95;3.60;;;;;;;;;;6307106;22;20009;-91
2023/06/07 15:02:32;;;;;;;10.55;3.75;;;;;;;;;;6306899;22;20207;-92
2023/06/07 15:05:17;;;;;;;11.93;4.40;;;;;;;;;;6305897;22;20014;-90
2023/06/07 15:08:04;;;;;;;13.95;4.28;;;;;;;;;;6306846;22;20383;-91
2023/06/07 15:10:49;;;;;;;10.43;3.95;;;;;;;;;;6305949;22;20034;-91
2023/06/07 15:13:33;;;;;;;8.88;3.85;;;;;;;;;;6306344;22;20338;-90
2023/06/07 15:16:18;;;;;;;9.65;3.83;;;;;;;;;;6306537;22;20334;-90
2023/06/07 15:19:03;;;;;;;15.60;4.47;;;;;;;;;;6305334;22;20014;-91
2023/06/07 15:21:49;;;;;;;11.20;3.25;;;;;;;;;;6305446;22;20060;-92
2023/06/07 15:24:34;;;;;;;14.70;4.05;;;;;;;;;;6306215;22;20045;-91
2023/06/07 15:27:19;;;;;;;9.60;3.67;;;;;;;;;;6306271;22;20053;-91
2023/06/07 15:30:04;;;;;;;9.88;4.15;;;;;;;;;;6306552;22;20068;-91
2023/06/07 15:32:48;;;;;;;10.80;3.28;;;;;;;;;;6305302;22;20053;-90
2023/06/07 15:35:33;;;;;;;10.25;3.55;;;;;;;;;;6305808;22;20793;-90
2023/06/07 15:38:18;;;;;;;11.40;4.13;;;;;;;;;;6282866;22;20060;-90
2023/06/07 15:41:02;;;;;;;11.38;3.70;;;;;;;;;;6305148;22;20451;-90
2023/06/07 15:43:47;;;;;;;12.10;5.00;;;;;;;;;;6305280;22;20057;-92
2023/06/07 15:46:31;;;;;;;10.32;4.03;;;;;;;;;;6305023;22;20407;-91
2023/06/07 15:49:19;;;;;;;9.82;3.70;;;;;;;;;;6305947;22;20021;-91
2023/06/07 15:52:04;;;;;;;7.93;3.78;;;;;;;;;;6282945;22;20018;-87
2023/06/07 15:54:49;;;;;;;10.70;4.30;;;;;;;;;;6304956;22;20384;-91
2023/06/07 15:57:34;;;;;;;10.07;3.70;;;;;;;;;;6281843;22;20598;-92
2023/06/07 16:00:19;;;;;;;15.25;4.88;;;;;;;;;;6303707;22;20093;-92
2023/06/07 16:03:03;;;;;;;11.40;3.70;;;;;;;;;;6304887;22;20018;-92
2023/06/07 16:05:49;;;;;;;13.45;4.05;;;;;;;;;;6304655;22;20472;-90
2023/06/07 16:08:34;;;;;;;17.75;4.43;;;;;;;;;;6304009;22;20014;-92
2023/06/07 16:11:19;;;;;;;13.20;4.20;;;;;;;;;;6282431;22;20507;-92
2023/06/07 16:14:04;;;;;;;11.95;4.57;;;;;;;;;;6304776;22;20084;-92
2023/06/07 16:16:49;;;;;;;12.38;4.25;;;;;;;;;;6305498;22;20345;-93
2023/06/07 16:19:33;;;;;;;13.93;4.07;;;;;;;;;;6304145;22;20491;-91
2023/06/07 16:22:20;;;;;;;12.13;4.55;;;;;;;;;;6282711;22;20334;-93